createdAt,value
2018-02-03T19:45:59.394Z,25.70
2018-02-03T19:48:29.001Z,30.33
2018-02-03T19:50:59.474Z,28.90
2018-02-03T19:53:29.888Z,30.50
2018-02-03T19:58:37.324Z,28.33
2018-02-03T20:01:06.808Z,27.37
2018-02-03T20:03:36.394Z,32.20
2018-02-03T20:06:06.077Z,31.67
2018-02-03T20:08:37.496Z,33.70
2018-02-03T20:11:14.760Z,31.87
2018-02-03T20:13:46.580Z,28.63
2018-02-03T20:16:16.492Z,25.60
2018-02-03T20:18:47.300Z,28.93
2018-02-03T20:21:18.368Z,27.63
2018-02-03T20:23:49.749Z,29.70
2018-02-03T20:26:20.446Z,29.00
2018-02-03T20:28:50.913Z,29.63
2018-02-03T20:31:29.668Z,25.37
2018-02-03T20:33:59.935Z,30.00
2018-02-03T20:36:35.565Z,34.93
2018-02-03T20:39:06.092Z,28.43
2018-02-03T20:41:40.572Z,28.80
2018-02-03T20:44:11.141Z,32.03
2018-02-03T20:46:41.915Z,31.33
2018-02-03T20:49:11.611Z,31.57
2018-02-03T20:51:41.196Z,29.57
2018-02-03T20:54:10.940Z,32.10
2018-02-03T20:56:47.433Z,33.27
2018-02-03T20:59:23.377Z,29.27
2018-02-03T21:01:53.221Z,32.43
2018-02-03T21:04:23.368Z,33.27
2018-02-03T21:06:53.234Z,33.03
2018-02-03T21:09:25.252Z,35.60
2018-02-03T21:11:55.963Z,30.53
2018-02-03T21:14:27.329Z,36.23
2018-02-03T21:16:57.365Z,29.87
2018-02-03T21:19:26.940Z,29.40
2018-02-03T21:21:56.564Z,30.60
2018-02-03T21:24:26.956Z,36.20
2018-02-03T21:26:56.513Z,35.60
2018-02-03T21:29:26.133Z,36.00
2018-02-03T21:31:55.685Z,34.77
2018-02-03T21:34:28.645Z,31.20
2018-02-03T21:37:07.148Z,34.33
2018-02-03T21:39:37.339Z,35.47
2018-02-03T21:42:07.261Z,34.30
2018-02-03T21:44:36.748Z,34.37
2018-02-03T21:47:06.438Z,34.40
2018-02-03T21:49:39.681Z,39.90
2018-02-03T21:52:15.477Z,37.33
2018-02-03T21:54:49.450Z,35.70
2018-02-03T21:57:19.813Z,37.50
2018-02-03T21:59:49.510Z,39.03
2018-02-03T22:02:19.080Z,36.23
2018-02-03T22:05:01.527Z,38.13
2018-02-03T22:07:33.277Z,43.00
2018-02-03T22:10:06.772Z,38.07
2018-02-03T22:20:34.316Z,36.40
2018-02-03T22:23:03.773Z,35.20
2018-02-03T22:25:33.450Z,40.67
2018-02-03T22:28:09.658Z,44.00
2018-02-03T22:30:42.144Z,38.57
2018-02-03T22:33:18.618Z,43.63
2018-02-03T22:38:45.535Z,39.60
2018-02-03T22:41:16.294Z,41.33
2018-02-03T22:43:45.925Z,45.37
2018-02-03T22:46:16.290Z,45.13
2018-02-03T22:48:45.773Z,41.30
2018-02-03T22:51:15.316Z,45.30
2018-02-03T22:53:44.774Z,43.67
2018-02-03T22:56:17.147Z,49.33
2018-02-03T22:58:48.088Z,46.97
2018-02-03T23:01:17.732Z,44.00
2018-02-03T23:03:49.719Z,47.90
2018-02-03T23:06:19.335Z,43.10
2018-02-03T23:08:48.724Z,47.33
2018-02-03T23:11:18.292Z,41.93
2018-02-03T23:13:47.829Z,40.53
2018-02-03T23:18:59.983Z,39.30
2018-02-03T23:21:29.511Z,39.43
2018-02-03T23:23:59.094Z,36.40
2018-02-03T23:26:28.535Z,38.90
2018-02-03T23:28:58.136Z,38.67
2018-02-03T23:31:30.505Z,36.93
2018-02-03T23:34:00.587Z,35.30
2018-02-03T23:36:30.093Z,38.57
2018-02-03T23:38:59.733Z,37.47
2018-02-03T23:41:33.505Z,36.80
2018-02-03T23:44:02.926Z,35.63
2018-02-03T23:46:32.387Z,42.07
2018-02-03T23:49:03.279Z,40.57
2018-02-03T23:51:32.856Z,40.93
2018-02-03T23:54:02.394Z,36.10
2018-02-03T23:56:32.219Z,40.07
2018-02-03T23:59:01.892Z,46.00
